sensor_id;sensor_type;location;lat;lon;timestamp;pressure;altitude;pressure_sealevel;temperature;humidity
65227;BME280;51805;49.012;12.104;2023-05-24T00:00:10;97929.06;;;24.72;41.79
65227;BME280;51805;49.012;12.104;2023-05-24T00:02:35;97934.22;;;24.74;41.85
65227;BME280;51805;49.012;12.104;2023-05-24T00:05:03;97918.28;;;24.62;41.73
65227;BME280;51805;49.012;12.104;2023-05-24T00:07:29;97918.28;;;24.62;41.86
65227;BME280;51805;49.012;12.104;2023-05-24T00:09:54;97919.09;;;24.68;41.85
65227;BME280;51805;49.012;12.104;2023-05-24T00:12:19;97913.13;;;24.66;42.00
65227;BME280;51805;49.012;12.104;2023-05-24T00:14:44;97925.25;;;24.73;41.87
65227;BME280;51805;49.012;12.104;2023-05-24T00:17:10;97923.09;;;24.70;41.96
65227;BME280;51805;49.012;12.104;2023-05-24T00:19:35;97904.19;;;24.60;41.94
65227;BME280;51805;49.012;12.104;2023-05-24T00:22:00;97909.03;;;24.63;41.94
65227;BME280;51805;49.012;12.104;2023-05-24T00:24:26;97911.75;;;24.63;41.86
65227;BME280;51805;49.012;12.104;2023-05-24T00:26:51;97918.28;;;24.62;41.99
65227;BME280;51805;49.012;12.104;2023-05-24T00:29:16;97920.91;;;24.72;42.05
65227;BME280;51805;49.012;12.104;2023-05-24T00:31:41;97933.69;;;24.72;41.93
65227;BME280;51805;49.012;12.104;2023-05-24T00:34:07;97926.94;;;24.69;41.85
65227;BME280;51805;49.012;12.104;2023-05-24T00:36:32;97926.94;;;24.69;42.01
65227;BME280;51805;49.012;12.104;2023-05-24T00:38:57;97933.47;;;24.68;41.95
65227;BME280;51805;49.012;12.104;2023-05-24T00:41:23;97936.16;;;24.68;42.01
65227;BME280;51805;49.012;12.104;2023-05-24T00:43:48;97927.75;;;24.64;41.93
65227;BME280;51805;49.012;12.104;2023-05-24T00:46:18;97912.50;;;24.50;41.96
65227;BME280;51805;49.012;12.104;2023-05-24T00:48:45;97933.16;;;24.70;42.09
65227;BME280;51805;49.012;12.104;2023-05-24T00:51:11;97935.38;;;24.68;42.09
65227;BME280;51805;49.012;12.104;2023-05-24T00:53:37;97943.25;;;24.69;41.97
65227;BME280;51805;49.012;12.104;2023-05-24T00:56:02;97927.53;;;24.66;41.74
65227;BME280;51805;49.012;12.104;2023-05-24T00:58:29;97919.47;;;24.56;41.91
65227;BME280;51805;49.012;12.104;2023-05-24T01:00:59;97919.69;;;24.59;42.14
65227;BME280;51805;49.012;12.104;2023-05-24T01:03:26;97920.19;;;24.61;42.00
65227;BME280;51805;49.012;12.104;2023-05-24T01:05:52;97930.25;;;24.66;41.93
65227;BME280;51805;49.012;12.104;2023-05-24T01:11:25;97943.53;;;24.68;42.02
65227;BME280;51805;49.012;12.104;2023-05-24T01:17:20;97933.75;;;24.67;42.03
65227;BME280;51805;49.012;12.104;2023-05-24T01:28:00;97918.88;;;24.59;42.06
65227;BME280;51805;49.012;12.104;2023-05-24T01:30:27;97915.88;;;24.60;42.00
65227;BME280;51805;49.012;12.104;2023-05-24T01:32:55;97900.03;;;24.49;42.03
65227;BME280;51805;49.012;12.104;2023-05-24T01:35:21;97928.56;;;24.65;42.03
65227;BME280;51805;49.012;12.104;2023-05-24T01:37:46;97919.53;;;24.51;42.22
65227;BME280;51805;49.012;12.104;2023-05-24T01:40:11;97920.28;;;24.56;42.05
65227;BME280;51805;49.012;12.104;2023-05-24T01:42:58;97929.16;;;24.62;42.19
65227;BME280;51805;49.012;12.104;2023-05-24T01:48:53;97906.91;;;24.41;42.13
65227;BME280;51805;49.012;12.104;2023-05-24T01:51:38;97917.06;;;24.54;42.10
65227;BME280;51805;49.012;12.104;2023-05-24T01:54:05;97933.28;;;24.59;42.01
65227;BME280;51805;49.012;12.104;2023-05-24T01:56:31;97931.66;;;24.58;42.21
65227;BME280;51805;49.012;12.104;2023-05-24T01:58:58;97933.59;;;24.58;42.12
65227;BME280;51805;49.012;12.104;2023-05-24T02:01:25;97922.06;;;24.47;42.19
65227;BME280;51805;49.012;12.104;2023-05-24T02:03:51;97928.50;;;24.51;42.28
65227;BME280;51805;49.012;12.104;2023-05-24T02:06:16;97926.31;;;24.53;42.17
65227;BME280;51805;49.012;12.104;2023-05-24T02:08:41;97934.16;;;24.55;42.31
65227;BME280;51805;49.012;12.104;2023-05-24T02:11:07;97936.88;;;24.55;42.18
65227;BME280;51805;49.012;12.104;2023-05-24T02:13:32;97935.78;;;24.56;42.50
65227;BME280;51805;49.012;12.104;2023-05-24T02:15:57;97925.06;;;24.46;42.32
65227;BME280;51805;49.012;12.104;2023-05-24T02:18:22;97936.38;;;24.53;42.32
65227;BME280;51805;49.012;12.104;2023-05-24T02:20:48;97932.34;;;24.50;42.31
65227;BME280;51805;49.012;12.104;2023-05-24T02:23:13;97937.78;;;24.50;42.39
65227;BME280;51805;49.012;12.104;2023-05-24T02:25:38;97940.78;;;24.49;42.46
65227;BME280;51805;49.012;12.104;2023-05-24T02:28:04;97949.44;;;24.51;42.29
65227;BME280;51805;49.012;12.104;2023-05-24T02:30:29;97940.78;;;24.49;42.31
65227;BME280;51805;49.012;12.104;2023-05-24T02:32:54;97944.50;;;24.53;42.40
65227;BME280;51805;49.012;12.104;2023-05-24T02:35:19;97947.59;;;24.46;42.49
65227;BME280;51805;49.012;12.104;2023-05-24T02:40:14;97944.56;;;24.48;42.36
65227;BME280;51805;49.012;12.104;2023-05-24T02:42:40;97940.25;;;24.47;42.40
65227;BME280;51805;49.012;12.104;2023-05-24T02:45:05;97935.94;;;24.46;42.31
65227;BME280;51805;49.012;12.104;2023-05-24T02:47:31;97935.13;;;24.45;42.46
65227;BME280;51805;49.012;12.104;2023-05-24T02:49:56;97927.84;;;24.41;42.31
65227;BME280;51805;49.012;12.104;2023-05-24T02:52:22;97938.34;;;24.47;42.48
65227;BME280;51805;49.012;12.104;2023-05-24T02:54:47;97941.28;;;24.51;42.46
65227;BME280;51805;49.012;12.104;2023-05-24T02:57:13;97951.66;;;24.49;42.30
65227;BME280;51805;49.012;12.104;2023-05-24T02:59:38;97947.00;;;24.49;42.28
65227;BME280;51805;49.012;12.104;2023-05-24T03:02:04;97936.00;;;24.41;42.35
65227;BME280;51805;49.012;12.104;2023-05-24T03:04:29;97947.28;;;24.48;42.47
65227;BME280;51805;49.012;12.104;2023-05-24T03:06:54;97951.94;;;24.47;42.36
65227;BME280;51805;49.012;12.104;2023-05-24T03:09:19;97966.31;;;24.48;42.33
65227;BME280;51805;49.012;12.104;2023-05-24T03:11:45;97962.81;;;24.47;42.38
65227;BME280;51805;49.012;12.104;2023-05-24T03:14:10;97955.50;;;24.43;42.39
65227;BME280;51805;49.012;12.104;2023-05-24T03:16:35;97967.94;;;24.49;42.55
65227;BME280;51805;49.012;12.104;2023-05-24T03:19:02;97969.31;;;24.46;42.39
65227;BME280;51805;49.012;12.104;2023-05-24T03:21:27;97966.91;;;24.45;42.30
65227;BME280;51805;49.012;12.104;2023-05-24T03:23:52;97972.56;;;24.48;42.57
65227;BME280;51805;49.012;12.104;2023-05-24T03:26:17;97979.91;;;24.48;42.50
65227;BME280;51805;49.012;12.104;2023-05-24T03:28:43;97982.63;;;24.48;42.56
65227;BME280;51805;49.012;12.104;2023-05-24T03:31:08;97978.88;;;24.44;42.47
65227;BME280;51805;49.012;12.104;2023-05-24T03:33:34;97970.19;;;24.42;42.54
65227;BME280;51805;49.012;12.104;2023-05-24T03:35:59;97962.03;;;24.42;42.47
65227;BME280;51805;49.012;12.104;2023-05-24T03:38:24;97971.25;;;24.46;42.57
65227;BME280;51805;49.012;12.104;2023-05-24T03:40:50;97961.47;;;24.45;42.42
65227;BME280;51805;49.012;12.104;2023-05-24T03:43:15;97964.69;;;24.47;42.42
65227;BME280;51805;49.012;12.104;2023-05-24T03:45:40;97973.16;;;24.45;42.54
65227;BME280;51805;49.012;12.104;2023-05-24T03:48:06;97964.47;;;24.43;42.50
65227;BME280;51805;49.012;12.104;2023-05-24T03:50:31;97978.59;;;24.45;42.50
65227;BME280;51805;49.012;12.104;2023-05-24T03:52:56;97977.47;;;24.46;42.50
65227;BME280;51805;49.012;12.104;2023-05-24T03:55:21;97967.72;;;24.45;42.38
65227;BME280;51805;49.012;12.104;2023-05-24T03:57:47;97966.91;;;24.45;42.45
65227;BME280;51805;49.012;12.104;2023-05-24T04:00:12;97977.75;;;24.45;42.56
65227;BME280;51805;49.012;12.104;2023-05-24T04:02:37;97982.63;;;24.48;42.37
65227;BME280;51805;49.012;12.104;2023-05-24T04:05:05;97978.28;;;24.47;42.37
65227;BME280;51805;49.012;12.104;2023-05-24T04:07:30;97962.03;;;24.42;42.46
65227;BME280;51805;49.012;12.104;2023-05-24T04:09:55;97967.72;;;24.45;42.54
65227;BME280;51805;49.012;12.104;2023-05-24T04:12:21;97976.38;;;24.47;42.57
65227;BME280;51805;49.012;12.104;2023-05-24T04:14:46;97977.19;;;24.48;42.62
65227;BME280;51805;49.012;12.104;2023-05-24T04:17:11;97982.63;;;24.48;42.55
65227;BME280;51805;49.012;12.104;2023-05-24T04:19:36;97975.56;;;24.47;42.71
65227;BME280;51805;49.012;12.104;2023-05-24T04:22:02;97967.41;;;24.47;42.90
65227;BME280;51805;49.012;12.104;2023-05-24T04:24:27;97965.72;;;24.51;42.92
65227;BME280;51805;49.012;12.104;2023-05-24T04:26:52;97960.88;;;24.48;42.76
65227;BME280;51805;49.012;12.104;2023-05-24T04:29:18;97971.16;;;24.51;43.30
65227;BME280;51805;49.012;12.104;2023-05-24T04:31:43;97966.84;;;24.50;43.26
65227;BME280;51805;49.012;12.104;2023-05-24T04:34:08;97968.16;;;24.52;43.17
65227;BME280;51805;49.012;12.104;2023-05-24T04:36:34;97962.72;;;24.52;43.42
65227;BME280;51805;49.012;12.104;2023-05-24T04:38:59;97969.78;;;24.53;43.26
65227;BME280;51805;49.012;12.104;2023-05-24T04:41:24;97958.63;;;24.55;43.19
65227;BME280;51805;49.012;12.104;2023-05-24T04:43:50;97956.50;;;24.52;43.16
65227;BME280;51805;49.012;12.104;2023-05-24T04:46:15;97967.78;;;24.59;42.90
65227;BME280;51805;49.012;12.104;2023-05-24T04:48:40;97970.22;;;24.60;43.11
65227;BME280;51805;49.012;12.104;2023-05-24T04:51:06;97959.34;;;24.60;42.85
65227;BME280;51805;49.012;12.104;2023-05-24T04:53:31;97961.78;;;24.62;42.99
65227;BME280;51805;49.012;12.104;2023-05-24T04:55:56;97963.38;;;24.63;43.10
65227;BME280;51805;49.012;12.104;2023-05-24T04:58:21;97952.31;;;24.59;43.09
65227;BME280;51805;49.012;12.104;2023-05-24T05:00:47;97965.03;;;24.64;43.13
65227;BME280;51805;49.012;12.104;2023-05-24T05:03:12;97942.38;;;24.50;43.24
65227;BME280;51805;49.012;12.104;2023-05-24T05:05:37;97962.38;;;24.59;43.25
65227;BME280;51805;49.012;12.104;2023-05-24T05:08:03;97970.19;;;24.66;43.21
65227;BME280;51805;49.012;12.104;2023-05-24T05:10:28;97960.97;;;24.61;43.14
65227;BME280;51805;49.012;12.104;2023-05-24T05:12:54;97969.34;;;24.65;43.02
65227;BME280;51805;49.012;12.104;2023-05-24T05:15:22;97973.94;;;24.70;43.35
65227;BME280;51805;49.012;12.104;2023-05-24T05:17:48;97974.75;;;24.70;43.02
65227;BME280;51805;49.012;12.104;2023-05-24T05:20:13;97974.16;;;24.73;43.13
65227;BME280;51805;49.012;12.104;2023-05-24T05:22:39;97974.75;;;24.70;42.99
65227;BME280;51805;49.012;12.104;2023-05-24T05:25:04;97982.03;;;24.75;42.99
65227;BME280;51805;49.012;12.104;2023-05-24T05:27:30;97978.47;;;24.74;43.10
65227;BME280;51805;49.012;12.104;2023-05-24T05:29:55;97974.16;;;24.73;43.21
65227;BME280;51805;49.012;12.104;2023-05-24T05:32:20;97970.31;;;24.74;42.77
65227;BME280;51805;49.012;12.104;2023-05-24T05:34:45;97952.31;;;24.59;43.20
65227;BME280;51805;49.012;12.104;2023-05-24T05:37:11;97967.91;;;24.73;43.12
65227;BME280;51805;49.012;12.104;2023-05-24T05:39:36;97969.53;;;24.74;43.29
65227;BME280;51805;49.012;12.104;2023-05-24T05:42:01;97967.91;;;24.73;43.38
65227;BME280;51805;49.012;12.104;2023-05-24T05:44:27;97969.53;;;24.74;43.37
65227;BME280;51805;49.012;12.104;2023-05-24T05:46:52;97965.41;;;24.76;43.55
65227;BME280;51805;49.012;12.104;2023-05-24T05:49:17;97964.09;;;24.74;43.30
65227;BME280;51805;49.012;12.104;2023-05-24T05:51:43;97968.94;;;24.77;43.40
65227;BME280;51805;49.012;12.104;2023-05-24T05:54:09;97965.94;;;24.78;43.38
65227;BME280;51805;49.012;12.104;2023-05-24T05:56:34;97970.78;;;24.81;43.37
65227;BME280;51805;49.012;12.104;2023-05-24T05:59:00;97972.41;;;24.82;43.35
65227;BME280;51805;49.012;12.104;2023-05-24T06:01:25;97964.53;;;24.81;43.50
65227;BME280;51805;49.012;12.104;2023-05-24T06:03:50;97970.78;;;24.81;43.31
65227;BME280;51805;49.012;12.104;2023-05-24T06:06:15;97971.81;;;24.85;43.46
65227;BME280;51805;49.012;12.104;2023-05-24T06:08:41;97967.25;;;24.81;43.48
65227;BME280;51805;49.012;12.104;2023-05-24T06:11:06;97963.00;;;24.75;43.70
65227;BME280;51805;49.012;12.104;2023-05-24T06:13:31;97974.00;;;24.83;43.69
65227;BME280;51805;49.012;12.104;2023-05-24T06:15:57;97973.22;;;24.83;43.62
65227;BME280;51805;49.012;12.104;2023-05-24T06:18:22;97975.94;;;24.83;43.92
65227;BME280;51805;49.012;12.104;2023-05-24T06:20:47;97979.44;;;24.83;43.79
65227;BME280;51805;49.012;12.104;2023-05-24T06:23:13;97975.63;;;24.84;43.75
65227;BME280;51805;49.012;12.104;2023-05-24T06:25:38;97979.44;;;24.83;43.88
65227;BME280;51805;49.012;12.104;2023-05-24T06:28:03;97977.53;;;24.84;43.91
65227;BME280;51805;49.012;12.104;2023-05-24T06:30:29;97974.00;;;24.83;43.77
65227;BME280;51805;49.012;12.104;2023-05-24T06:32:54;97971.09;;;24.80;43.73
65227;BME280;51805;49.012;12.104;2023-05-24T06:35:19;97975.63;;;24.84;43.86
65227;BME280;51805;49.012;12.104;2023-05-24T06:37:44;97972.41;;;24.82;43.75
65227;BME280;51805;49.012;12.104;2023-05-24T06:40:10;97974.00;;;24.83;43.67
65227;BME280;51805;49.012;12.104;2023-05-24T06:42:36;97969.16;;;24.80;43.60
65227;BME280;51805;49.012;12.104;2023-05-24T06:45:02;97974.59;;;24.80;43.44
65227;BME280;51805;49.012;12.104;2023-05-24T06:47:27;97978.34;;;24.84;43.92
65227;BME280;51805;49.012;12.104;2023-05-24T06:49:53;97982.16;;;24.83;43.36
65227;BME280;51805;49.012;12.104;2023-05-24T06:52:18;97981.88;;;24.85;43.53
65227;BME280;51805;49.012;12.104;2023-05-24T06:54:43;97978.13;;;24.81;43.71
65227;BME280;51805;49.012;12.104;2023-05-24T06:57:09;97991.34;;;24.87;44.08
65227;BME280;51805;49.012;12.104;2023-05-24T06:59:34;97990.25;;;24.88;44.77
65227;BME280;51805;49.012;12.104;2023-05-24T07:01:59;97972.16;;;24.79;44.93
65227;BME280;51805;49.012;12.104;2023-05-24T07:04:24;97993.56;;;24.85;45.23
65227;BME280;51805;49.012;12.104;2023-05-24T07:06:51;97994.59;;;24.89;45.00
65227;BME280;51805;49.012;12.104;2023-05-24T07:09:17;97993.78;;;24.89;45.53
65227;BME280;51805;49.012;12.104;2023-05-24T07:11:42;97993.19;;;24.92;45.26
65227;BME280;51805;49.012;12.104;2023-05-24T07:14:08;97993.19;;;24.92;44.78
65227;BME280;51805;49.012;12.104;2023-05-24T07:16:33;98005.38;;;24.94;44.92
65227;BME280;51805;49.012;12.104;2023-05-24T07:18:59;97995.75;;;24.83;45.01
65227;BME280;51805;49.012;12.104;2023-05-24T07:21:25;98013.53;;;24.94;44.93
65227;BME280;51805;49.012;12.104;2023-05-24T07:23:50;98010.81;;;24.94;44.70
65227;BME280;51805;49.012;12.104;2023-05-24T07:26:15;98013.84;;;24.93;44.80
65227;BME280;51805;49.012;12.104;2023-05-24T07:28:41;98016.56;;;24.93;44.72
65227;BME280;51805;49.012;12.104;2023-05-24T07:31:10;98020.63;;;24.95;44.69
65227;BME280;51805;49.012;12.104;2023-05-24T07:33:36;98028.78;;;24.95;44.70
65227;BME280;51805;49.012;12.104;2023-05-24T07:36:01;98026.84;;;24.96;44.49
65227;BME280;51805;49.012;12.104;2023-05-24T07:38:28;98029.56;;;24.96;44.74
65227;BME280;51805;49.012;12.104;2023-05-24T07:40:53;98035.81;;;24.96;44.74
65227;BME280;51805;49.012;12.104;2023-05-24T07:43:19;98027.66;;;24.96;44.59
65227;BME280;51805;49.012;12.104;2023-05-24T07:45:44;98030.91;;;24.98;44.58
65227;BME280;51805;49.012;12.104;2023-05-24T07:48:09;98037.13;;;24.99;44.51
65227;BME280;51805;49.012;12.104;2023-05-24T07:50:35;98048.00;;;24.99;44.39
65227;BME280;51805;49.012;12.104;2023-05-24T07:53:00;98043.09;;;25.01;44.32
65227;BME280;51805;49.012;12.104;2023-05-24T07:55:25;98034.13;;;25.00;44.35
65227;BME280;51805;49.012;12.104;2023-05-24T07:57:51;98032.50;;;24.99;44.46
65227;BME280;51805;49.012;12.104;2023-05-24T08:00:16;98034.13;;;25.00;44.29
65227;BME280;51805;49.012;12.104;2023-05-24T08:02:42;98039.06;;;24.98;44.15
65227;BME280;51805;49.012;12.104;2023-05-24T08:05:10;98039.06;;;24.98;44.00
65227;BME280;51805;49.012;12.104;2023-05-24T08:07:35;98046.63;;;25.01;44.13
65227;BME280;51805;49.012;12.104;2023-05-24T08:10:01;98049.63;;;25.00;43.99
65227;BME280;51805;49.012;12.104;2023-05-24T08:12:26;98049.63;;;25.00;44.56
65227;BME280;51805;49.012;12.104;2023-05-24T08:14:51;98049.63;;;25.00;43.92
65227;BME280;51805;49.012;12.104;2023-05-24T08:17:17;98045.22;;;25.04;44.02
65227;BME280;51805;49.012;12.104;2023-05-24T08:19:42;98046.91;;;25.00;43.91
65227;BME280;51805;49.012;12.104;2023-05-24T08:22:07;98037.34;;;25.02;43.78
65227;BME280;51805;49.012;12.104;2023-05-24T08:24:33;98040.38;;;25.01;43.92
65227;BME280;51805;49.012;12.104;2023-05-24T08:26:58;98041.19;;;25.01;43.78
65227;BME280;51805;49.012;12.104;2023-05-24T08:29:23;98041.78;;;24.98;43.85
65227;BME280;51805;49.012;12.104;2023-05-24T08:31:49;98047.41;;;25.02;43.94
65227;BME280;51805;49.012;12.104;2023-05-24T08:34:14;98049.84;;;25.03;43.96
65227;BME280;51805;49.012;12.104;2023-05-24T08:36:40;98055.28;;;25.03;43.68
65227;BME280;51805;49.012;12.104;2023-05-24T08:39:05;98056.41;;;25.02;43.78
65227;BME280;51805;49.012;12.104;2023-05-24T08:41:31;98041.31;;;24.91;43.76
65227;BME280;51805;49.012;12.104;2023-05-24T08:43:59;98079.47;;;25.05;43.64
65227;BME280;51805;49.012;12.104;2023-05-24T08:46:25;98049.47;;;24.91;43.72
65227;BME280;51805;49.012;12.104;2023-05-24T08:48:50;98074.53;;;25.07;43.79
65227;BME280;51805;49.012;12.104;2023-05-24T08:51:16;98070.00;;;25.02;43.67
65227;BME280;51805;49.012;12.104;2023-05-24T08:53:45;98070.00;;;25.02;43.65
65227;BME280;51805;49.012;12.104;2023-05-24T08:56:11;98071.81;;;25.07;43.33
65227;BME280;51805;49.012;12.104;2023-05-24T08:58:37;98072.66;;;25.07;43.39
65227;BME280;51805;49.012;12.104;2023-05-24T09:01:03;98065.56;;;25.06;43.49
65227;BME280;51805;49.012;12.104;2023-05-24T09:03:30;98064.50;;;25.07;43.63
65227;BME280;51805;49.012;12.104;2023-05-24T09:05:56;98059.94;;;25.03;43.49
65227;BME280;51805;49.012;12.104;2023-05-24T09:08:22;98073.16;;;25.09;43.52
65227;BME280;51805;49.012;12.104;2023-05-24T09:10:48;98062.84;;;25.06;43.41
65227;BME280;51805;49.012;12.104;2023-05-24T09:13:14;98065.00;;;25.09;43.25
65227;BME280;51805;49.012;12.104;2023-05-24T09:15:39;98067.72;;;25.09;43.48
65227;BME280;51805;49.012;12.104;2023-05-24T09:18:05;98065.56;;;25.06;43.27
65227;BME280;51805;49.012;12.104;2023-05-24T09:20:30;98075.31;;;25.12;43.32
65227;BME280;51805;49.012;12.104;2023-05-24T09:22:56;98055.88;;;25.00;43.22
65227;BME280;51805;49.012;12.104;2023-05-24T09:25:26;98079.03;;;25.16;43.29
65227;BME280;51805;49.012;12.104;2023-05-24T09:27:52;98087.19;;;25.16;43.17
65227;BME280;51805;49.012;12.104;2023-05-24T09:30:18;98087.19;;;25.16;43.30
65227;BME280;51805;49.012;12.104;2023-05-24T09:32:55;98096.19;;;25.17;43.29
65227;BME280;51805;49.012;12.104;2023-05-24T09:35:20;98072.06;;;25.10;43.15
65227;BME280;51805;49.012;12.104;2023-05-24T09:37:45;98080.94;;;25.16;43.16
65227;BME280;51805;49.012;12.104;2023-05-24T09:40:20;98074.72;;;25.15;43.36
65227;BME280;51805;49.012;12.104;2023-05-24T09:42:45;98077.16;;;25.17;43.30
65227;BME280;51805;49.012;12.104;2023-05-24T09:45:11;98079.03;;;25.16;43.23
65227;BME280;51805;49.012;12.104;2023-05-24T09:47:38;98076.84;;;25.18;43.10
65227;BME280;51805;49.012;12.104;2023-05-24T09:50:05;98083.38;;;25.17;43.35
65227;BME280;51805;49.012;12.104;2023-05-24T09:52:35;98076.03;;;25.18;43.08
65227;BME280;51805;49.012;12.104;2023-05-24T09:55:19;98061.59;;;25.17;43.20
65227;BME280;51805;49.012;12.104;2023-05-24T09:57:59;98067.03;;;25.17;43.31
65227;BME280;51805;49.012;12.104;2023-05-24T10:00:25;98069.78;;;25.17;43.05
65227;BME280;51805;49.012;12.104;2023-05-24T10:03:04;98066.25;;;25.17;43.23
65227;BME280;51805;49.012;12.104;2023-05-24T10:05:29;98065.97;;;25.18;43.06
65227;BME280;51805;49.012;12.104;2023-05-24T10:07:56;98060.81;;;25.17;43.02
65227;BME280;51805;49.012;12.104;2023-05-24T10:10:22;98060.00;;;25.16;43.22
65227;BME280;51805;49.012;12.104;2023-05-24T10:12:47;98060.00;;;25.16;43.18
65227;BME280;51805;49.012;12.104;2023-05-24T10:15:14;98058.41;;;25.15;43.14
65227;BME280;51805;49.012;12.104;2023-05-24T10:17:39;98061.91;;;25.16;43.04
65227;BME280;51805;49.012;12.104;2023-05-24T10:20:05;98067.34;;;25.16;43.16
65227;BME280;51805;49.012;12.104;2023-05-24T10:22:31;98068.69;;;25.18;43.04
65227;BME280;51805;49.012;12.104;2023-05-24T10:24:59;98065.97;;;25.18;42.95
65227;BME280;51805;49.012;12.104;2023-05-24T10:27:27;98073.31;;;25.18;42.92
65227;BME280;51805;49.012;12.104;2023-05-24T10:32:30;98064.63;;;25.16;43.15
65227;BME280;51805;49.012;12.104;2023-05-24T10:34:57;98067.03;;;25.17;43.14
65227;BME280;51805;49.012;12.104;2023-05-24T10:37:24;98061.59;;;25.17;43.15
65227;BME280;51805;49.012;12.104;2023-05-24T10:39:49;98076.84;;;25.18;42.83
65227;BME280;51805;49.012;12.104;2023-05-24T10:42:14;98064.63;;;25.16;42.92
65227;BME280;51805;49.012;12.104;2023-05-24T10:44:40;98078.44;;;25.19;42.76
65227;BME280;51805;49.012;12.104;2023-05-24T10:47:13;98075.22;;;25.17;42.85
65227;BME280;51805;49.012;12.104;2023-05-24T10:49:50;98074.13;;;25.18;42.92
65227;BME280;51805;49.012;12.104;2023-05-24T10:52:15;98077.34;;;25.20;42.64
65227;BME280;51805;49.012;12.104;2023-05-24T10:55:00;98073.53;;;25.21;42.76
65227;BME280;51805;49.012;12.104;2023-05-24T10:57:26;98078.97;;;25.21;42.73
65227;BME280;51805;49.012;12.104;2023-05-24T10:59:51;98073.53;;;25.21;42.76
65227;BME280;51805;49.012;12.104;2023-05-24T11:02:18;98055.69;;;25.15;42.36
65227;BME280;51805;49.012;12.104;2023-05-24T11:04:46;98064.25;;;25.22;42.52
65227;BME280;51805;49.012;12.104;2023-05-24T11:07:15;98065.09;;;25.23;42.61
65227;BME280;51805;49.012;12.104;2023-05-24T11:09:41;98056.94;;;25.23;42.36
65227;BME280;51805;49.012;12.104;2023-05-24T11:12:07;98081.41;;;25.23;42.46
65227;BME280;51805;49.012;12.104;2023-05-24T11:14:37;98065.09;;;25.23;42.29
65227;BME280;51805;49.012;12.104;2023-05-24T11:17:03;98064.25;;;25.22;42.24
65227;BME280;51805;49.012;12.104;2023-05-24T11:19:37;98055.00;;;25.23;42.34
65227;BME280;51805;49.012;12.104;2023-05-24T11:22:06;98056.63;;;25.24;42.19
65227;BME280;51805;49.012;12.104;2023-05-24T11:24:32;98050.91;;;25.26;42.34
65227;BME280;51805;49.012;12.104;2023-05-24T11:26:59;98057.94;;;25.27;42.13
65227;BME280;51805;49.012;12.104;2023-05-24T11:29:25;98060.38;;;25.28;42.24
65227;BME280;51805;49.012;12.104;2023-05-24T11:31:52;98060.38;;;25.28;42.13
65227;BME280;51805;49.012;12.104;2023-05-24T11:34:19;98050.06;;;25.25;41.96
65227;BME280;51805;49.012;12.104;2023-05-24T11:36:45;98064.44;;;25.31;42.01
65227;BME280;51805;49.012;12.104;2023-05-24T11:39:12;98066.91;;;25.27;42.07
65227;BME280;51805;49.012;12.104;2023-05-24T11:41:38;98047.81;;;25.14;41.89
65227;BME280;51805;49.012;12.104;2023-05-24T11:44:03;98055.06;;;25.00;41.55
65227;BME280;51805;49.012;12.104;2023-05-24T11:46:30;98035.97;;;24.86;40.68
65227;BME280;51805;49.012;12.104;2023-05-24T11:48:56;98048.50;;;24.82;39.80
65227;BME280;51805;49.012;12.104;2023-05-24T11:51:28;98057.31;;;24.74;40.29
65227;BME280;51805;49.012;12.104;2023-05-24T11:53:55;98052.56;;;24.61;39.06
65227;BME280;51805;49.012;12.104;2023-05-24T11:56:20;98054.16;;;24.62;40.20
65227;BME280;51805;49.012;12.104;2023-05-24T11:58:49;98057.06;;;24.47;40.88
65227;BME280;51805;49.012;12.104;2023-05-24T12:01:25;98056.03;;;24.43;40.53
65227;BME280;51805;49.012;12.104;2023-05-24T12:03:51;98056.59;;;24.40;40.27
65227;BME280;51805;49.012;12.104;2023-05-24T12:06:16;98060.31;;;24.49;39.67
65227;BME280;51805;49.012;12.104;2023-05-24T12:08:42;98050.53;;;24.48;37.64
65227;BME280;51805;49.012;12.104;2023-05-24T12:11:07;98041.94;;;24.41;37.34
65227;BME280;51805;49.012;12.104;2023-05-24T12:13:32;98035.91;;;24.44;36.96
65227;BME280;51805;49.012;12.104;2023-05-24T12:15:58;98038.16;;;24.37;38.49
65227;BME280;51805;49.012;12.104;2023-05-24T12:18:24;98034.28;;;24.43;36.96
65227;BME280;51805;49.012;12.104;2023-05-24T12:20:50;98037.88;;;24.38;36.62
65227;BME280;51805;49.012;12.104;2023-05-24T12:23:19;98034.56;;;24.41;36.39
65227;BME280;51805;49.012;12.104;2023-05-24T12:25:44;98031.13;;;24.36;36.28
65227;BME280;51805;49.012;12.104;2023-05-24T12:28:10;98034.94;;;24.35;37.03
65227;BME280;51805;49.012;12.104;2023-05-24T12:30:37;98033.25;;;24.15;38.64
65227;BME280;51805;49.012;12.104;2023-05-24T12:33:02;98021.47;;;24.25;37.62
65227;BME280;51805;49.012;12.104;2023-05-24T12:35:28;98029.56;;;24.30;35.56
65227;BME280;51805;49.012;12.104;2023-05-24T12:37:59;98043.19;;;24.25;37.94
65227;BME280;51805;49.012;12.104;2023-05-24T12:40:24;98039.50;;;24.16;38.13
65227;BME280;51805;49.012;12.104;2023-05-24T12:42:53;98038.53;;;24.30;36.23
65227;BME280;51805;49.012;12.104;2023-05-24T12:45:18;98042.28;;;24.34;35.00
65227;BME280;51805;49.012;12.104;2023-05-24T12:47:43;98041.59;;;24.24;37.43
65227;BME280;51805;49.012;12.104;2023-05-24T12:50:09;98032.81;;;24.32;37.01
65227;BME280;51805;49.012;12.104;2023-05-24T12:52:34;98038.75;;;24.34;35.02
65227;BME280;51805;49.012;12.104;2023-05-24T12:54:59;98043.38;;;24.33;34.74
65227;BME280;51805;49.012;12.104;2023-05-24T12:57:25;98047.47;;;24.31;34.44
65227;BME280;51805;49.012;12.104;2023-05-24T12:59:50;98045.84;;;24.30;35.54
65227;BME280;51805;49.012;12.104;2023-05-24T13:02:15;98032.28;;;24.30;36.38
65227;BME280;51805;49.012;12.104;2023-05-24T13:04:40;98034.31;;;24.19;36.43
65227;BME280;51805;49.012;12.104;2023-05-24T13:07:06;98023.88;;;24.26;34.31